sensor_id;sensor_type;location;lat;lon;timestamp;P1;durP1;ratioP1;P2;durP2;ratioP2
77586;SDS011;66744;49.716;17.158;2024-01-16T00:00:03;5.55;;;2.95;;
77586;SDS011;66744;49.716;17.158;2024-01-16T00:03:06;4.47;;;3.45;;
77586;SDS011;66744;49.716;17.158;2024-01-16T00:06:10;5.68;;;3.20;;
77586;SDS011;66744;49.716;17.158;2024-01-16T00:09:12;5.65;;;3.20;;
77586;SDS011;66744;49.716;17.158;2024-01-16T00:12:16;5.68;;;3.58;;
77586;SDS011;66744;49.716;17.158;2024-01-16T00:15:17;4.43;;;3.47;;
77586;SDS011;66744;49.716;17.158;2024-01-16T00:18:19;5.35;;;3.20;;
77586;SDS011;66744;49.716;17.158;2024-01-16T00:21:21;4.13;;;3.03;;
77586;SDS011;66744;49.716;17.158;2024-01-16T00:24:22;6.78;;;3.88;;
77586;SDS011;66744;49.716;17.158;2024-01-16T00:27:24;6.60;;;3.08;;
77586;SDS011;66744;49.716;17.158;2024-01-16T00:30:29;5.72;;;2.90;;
77586;SDS011;66744;49.716;17.158;2024-01-16T00:33:31;6.43;;;3.10;;
77586;SDS011;66744;49.716;17.158;2024-01-16T00:36:33;7.10;;;3.55;;
77586;SDS011;66744;49.716;17.158;2024-01-16T00:39:35;7.35;;;3.67;;
77586;SDS011;66744;49.716;17.158;2024-01-16T00:42:37;4.82;;;3.17;;
77586;SDS011;66744;49.716;17.158;2024-01-16T00:45:41;5.18;;;2.97;;
77586;SDS011;66744;49.716;17.158;2024-01-16T00:48:45;4.95;;;3.55;;
77586;SDS011;66744;49.716;17.158;2024-01-16T00:51:49;3.28;;;2.15;;
77586;SDS011;66744;49.716;17.158;2024-01-16T00:54:54;5.15;;;3.30;;
77586;SDS011;66744;49.716;17.158;2024-01-16T00:57:57;4.75;;;2.70;;
77586;SDS011;66744;49.716;17.158;2024-01-16T01:01:05;5.85;;;2.83;;
77586;SDS011;66744;49.716;17.158;2024-01-16T01:04:07;4.78;;;3.47;;
77586;SDS011;66744;49.716;17.158;2024-01-16T01:07:08;4.05;;;2.35;;
77586;SDS011;66744;49.716;17.158;2024-01-16T01:10:14;4.57;;;2.60;;
77586;SDS011;66744;49.716;17.158;2024-01-16T01:13:17;3.72;;;2.53;;
77586;SDS011;66744;49.716;17.158;2024-01-16T01:16:20;3.85;;;2.67;;
77586;SDS011;66744;49.716;17.158;2024-01-16T01:19:23;4.07;;;2.83;;
77586;SDS011;66744;49.716;17.158;2024-01-16T01:22:25;4.32;;;3.03;;
77586;SDS011;66744;49.716;17.158;2024-01-16T01:25:32;4.25;;;2.45;;
77586;SDS011;66744;49.716;17.158;2024-01-16T01:28:34;5.85;;;2.47;;
77586;SDS011;66744;49.716;17.158;2024-01-16T01:31:35;3.70;;;2.67;;
77586;SDS011;66744;49.716;17.158;2024-01-16T01:34:37;3.60;;;2.50;;
77586;SDS011;66744;49.716;17.158;2024-01-16T01:37:41;3.38;;;2.35;;
77586;SDS011;66744;49.716;17.158;2024-01-16T01:40:44;4.35;;;2.50;;
77586;SDS011;66744;49.716;17.158;2024-01-16T01:43:50;6.63;;;3.00;;
77586;SDS011;66744;49.716;17.158;2024-01-16T01:46:51;5.30;;;2.47;;
77586;SDS011;66744;49.716;17.158;2024-01-16T01:49:57;4.35;;;2.55;;
77586;SDS011;66744;49.716;17.158;2024-01-16T01:53:01;4.13;;;2.05;;
77586;SDS011;66744;49.716;17.158;2024-01-16T01:56:04;4.15;;;2.22;;
77586;SDS011;66744;49.716;17.158;2024-01-16T01:59:08;4.63;;;3.00;;
77586;SDS011;66744;49.716;17.158;2024-01-16T02:02:12;4.50;;;2.70;;
77586;SDS011;66744;49.716;17.158;2024-01-16T02:05:13;4.38;;;2.55;;
77586;SDS011;66744;49.716;17.158;2024-01-16T02:08:17;4.93;;;3.00;;
77586;SDS011;66744;49.716;17.158;2024-01-16T02:11:22;2.40;;;1.67;;
77586;SDS011;66744;49.716;17.158;2024-01-16T02:14:25;3.30;;;2.30;;
77586;SDS011;66744;49.716;17.158;2024-01-16T02:17:26;3.67;;;2.10;;
77586;SDS011;66744;49.716;17.158;2024-01-16T02:20:28;3.33;;;2.15;;
77586;SDS011;66744;49.716;17.158;2024-01-16T02:23:29;3.60;;;2.35;;
77586;SDS011;66744;49.716;17.158;2024-01-16T02:26:32;3.22;;;1.88;;
77586;SDS011;66744;49.716;17.158;2024-01-16T02:29:41;3.75;;;2.13;;
77586;SDS011;66744;49.716;17.158;2024-01-16T02:32:47;2.53;;;1.83;;
77586;SDS011;66744;49.716;17.158;2024-01-16T02:35:52;4.82;;;2.30;;
77586;SDS011;66744;49.716;17.158;2024-01-16T02:38:55;6.00;;;2.00;;
77586;SDS011;66744;49.716;17.158;2024-01-16T02:41:56;3.15;;;1.95;;
77586;SDS011;66744;49.716;17.158;2024-01-16T02:45:01;3.05;;;1.52;;
77586;SDS011;66744;49.716;17.158;2024-01-16T02:48:06;3.45;;;2.05;;
77586;SDS011;66744;49.716;17.158;2024-01-16T02:51:08;3.90;;;1.70;;
77586;SDS011;66744;49.716;17.158;2024-01-16T02:54:12;3.17;;;1.60;;
77586;SDS011;66744;49.716;17.158;2024-01-16T02:57:13;3.38;;;1.80;;
77586;SDS011;66744;49.716;17.158;2024-01-16T03:00:17;4.97;;;1.90;;
77586;SDS011;66744;49.716;17.158;2024-01-16T03:03:19;3.47;;;2.33;;
77586;SDS011;66744;49.716;17.158;2024-01-16T03:06:26;3.10;;;1.77;;
77586;SDS011;66744;49.716;17.158;2024-01-16T03:09:32;3.35;;;1.92;;
77586;SDS011;66744;49.716;17.158;2024-01-16T03:12:36;4.93;;;2.25;;
77586;SDS011;66744;49.716;17.158;2024-01-16T03:15:42;6.90;;;2.22;;
77586;SDS011;66744;49.716;17.158;2024-01-16T03:18:44;2.95;;;2.15;;
77586;SDS011;66744;49.716;17.158;2024-01-16T03:21:45;5.40;;;2.03;;
77586;SDS011;66744;49.716;17.158;2024-01-16T03:24:48;3.42;;;1.80;;
77586;SDS011;66744;49.716;17.158;2024-01-16T03:27:50;3.70;;;1.77;;
77586;SDS011;66744;49.716;17.158;2024-01-16T03:30:54;4.60;;;2.22;;
77586;SDS011;66744;49.716;17.158;2024-01-16T03:33:55;5.53;;;1.48;;
77586;SDS011;66744;49.716;17.158;2024-01-16T03:36:56;4.25;;;2.15;;
77586;SDS011;66744;49.716;17.158;2024-01-16T03:40:01;2.30;;;1.40;;
77586;SDS011;66744;49.716;17.158;2024-01-16T03:43:04;3.35;;;1.67;;
77586;SDS011;66744;49.716;17.158;2024-01-16T03:46:12;4.18;;;1.75;;
77586;SDS011;66744;49.716;17.158;2024-01-16T03:49:14;3.60;;;1.70;;
77586;SDS011;66744;49.716;17.158;2024-01-16T03:55:16;2.65;;;1.45;;
77586;SDS011;66744;49.716;17.158;2024-01-16T03:58:18;3.35;;;1.65;;
77586;SDS011;66744;49.716;17.158;2024-01-16T04:01:31;4.47;;;1.48;;
77586;SDS011;66744;49.716;17.158;2024-01-16T04:04:35;3.92;;;1.60;;
77586;SDS011;66744;49.716;17.158;2024-01-16T04:07:36;5.13;;;1.95;;
77586;SDS011;66744;49.716;17.158;2024-01-16T04:13:39;2.78;;;1.25;;
77586;SDS011;66744;49.716;17.158;2024-01-16T04:16:42;3.72;;;1.50;;
77586;SDS011;66744;49.716;17.158;2024-01-16T04:19:46;3.38;;;1.40;;
77586;SDS011;66744;49.716;17.158;2024-01-16T04:22:48;3.17;;;1.35;;
77586;SDS011;66744;49.716;17.158;2024-01-16T04:25:51;2.30;;;1.45;;
77586;SDS011;66744;49.716;17.158;2024-01-16T04:28:53;3.75;;;1.48;;
77586;SDS011;66744;49.716;17.158;2024-01-16T04:31:55;2.55;;;1.70;;
77586;SDS011;66744;49.716;17.158;2024-01-16T04:34:59;2.90;;;1.42;;
77586;SDS011;66744;49.716;17.158;2024-01-16T04:38:03;2.47;;;1.15;;
77586;SDS011;66744;49.716;17.158;2024-01-16T04:41:05;5.95;;;1.80;;
77586;SDS011;66744;49.716;17.158;2024-01-16T04:44:07;3.22;;;1.20;;
77586;SDS011;66744;49.716;17.158;2024-01-16T04:47:08;3.15;;;1.30;;
77586;SDS011;66744;49.716;17.158;2024-01-16T04:50:10;2.85;;;1.58;;
77586;SDS011;66744;49.716;17.158;2024-01-16T04:53:11;5.00;;;1.42;;
77586;SDS011;66744;49.716;17.158;2024-01-16T04:56:12;2.78;;;1.33;;
77586;SDS011;66744;49.716;17.158;2024-01-16T04:59:14;3.95;;;1.58;;
77586;SDS011;66744;49.716;17.158;2024-01-16T05:02:15;2.08;;;1.45;;
77586;SDS011;66744;49.716;17.158;2024-01-16T05:05:18;4.72;;;1.67;;
77586;SDS011;66744;49.716;17.158;2024-01-16T05:08:20;3.75;;;3.15;;
77586;SDS011;66744;49.716;17.158;2024-01-16T05:11:22;5.97;;;1.80;;
77586;SDS011;66744;49.716;17.158;2024-01-16T05:14:29;1.75;;;1.27;;
77586;SDS011;66744;49.716;17.158;2024-01-16T05:17:31;3.92;;;1.55;;
77586;SDS011;66744;49.716;17.158;2024-01-16T05:20:34;3.00;;;1.75;;
77586;SDS011;66744;49.716;17.158;2024-01-16T05:23:38;2.72;;;1.77;;
77586;SDS011;66744;49.716;17.158;2024-01-16T05:26:40;4.85;;;1.98;;
77586;SDS011;66744;49.716;17.158;2024-01-16T05:29:43;3.25;;;1.75;;
77586;SDS011;66744;49.716;17.158;2024-01-16T05:32:45;3.08;;;1.38;;
77586;SDS011;66744;49.716;17.158;2024-01-16T05:35:47;3.45;;;1.90;;
77586;SDS011;66744;49.716;17.158;2024-01-16T05:41:50;3.08;;;1.50;;
77586;SDS011;66744;49.716;17.158;2024-01-16T05:44:52;3.53;;;1.80;;
77586;SDS011;66744;49.716;17.158;2024-01-16T05:47:55;3.00;;;2.10;;
77586;SDS011;66744;49.716;17.158;2024-01-16T05:50:58;2.55;;;1.60;;
77586;SDS011;66744;49.716;17.158;2024-01-16T05:53:59;2.72;;;1.90;;
77586;SDS011;66744;49.716;17.158;2024-01-16T05:57:01;8.00;;;1.65;;
77586;SDS011;66744;49.716;17.158;2024-01-16T06:00:06;2.53;;;1.60;;
77586;SDS011;66744;49.716;17.158;2024-01-16T06:03:08;6.00;;;1.90;;
77586;SDS011;66744;49.716;17.158;2024-01-16T06:06:09;3.55;;;1.95;;
77586;SDS011;66744;49.716;17.158;2024-01-16T06:09:10;4.30;;;1.63;;
77586;SDS011;66744;49.716;17.158;2024-01-16T06:12:15;5.53;;;2.05;;
77586;SDS011;66744;49.716;17.158;2024-01-16T06:15:16;2.25;;;1.88;;
77586;SDS011;66744;49.716;17.158;2024-01-16T06:18:17;5.28;;;2.13;;
77586;SDS011;66744;49.716;17.158;2024-01-16T06:21:19;2.80;;;1.63;;
77586;SDS011;66744;49.716;17.158;2024-01-16T06:24:20;3.05;;;1.60;;
77586;SDS011;66744;49.716;17.158;2024-01-16T06:27:21;2.63;;;1.92;;
77586;SDS011;66744;49.716;17.158;2024-01-16T06:30:22;3.35;;;2.03;;
77586;SDS011;66744;49.716;17.158;2024-01-16T06:33:24;4.13;;;1.92;;
77586;SDS011;66744;49.716;17.158;2024-01-16T06:36:26;3.10;;;1.80;;
77586;SDS011;66744;49.716;17.158;2024-01-16T06:39:27;2.60;;;1.50;;
77586;SDS011;66744;49.716;17.158;2024-01-16T06:45:30;4.28;;;1.63;;
77586;SDS011;66744;49.716;17.158;2024-01-16T06:48:31;4.10;;;1.52;;
77586;SDS011;66744;49.716;17.158;2024-01-16T06:51:32;3.78;;;1.75;;
77586;SDS011;66744;49.716;17.158;2024-01-16T06:54:33;3.60;;;1.95;;
77586;SDS011;66744;49.716;17.158;2024-01-16T06:57:34;4.22;;;1.65;;
77586;SDS011;66744;49.716;17.158;2024-01-16T07:00:36;3.22;;;1.27;;
77586;SDS011;66744;49.716;17.158;2024-01-16T07:03:37;1.75;;;1.13;;
77586;SDS011;66744;49.716;17.158;2024-01-16T07:06:38;4.78;;;1.30;;
77586;SDS011;66744;49.716;17.158;2024-01-16T07:09:39;3.03;;;1.98;;
77586;SDS011;66744;49.716;17.158;2024-01-16T07:12:41;2.65;;;1.50;;
77586;SDS011;66744;49.716;17.158;2024-01-16T07:15:42;3.72;;;1.67;;
77586;SDS011;66744;49.716;17.158;2024-01-16T07:18:43;1.67;;;1.27;;
77586;SDS011;66744;49.716;17.158;2024-01-16T07:21:44;2.10;;;1.25;;
77586;SDS011;66744;49.716;17.158;2024-01-16T07:24:46;2.42;;;1.60;;
77586;SDS011;66744;49.716;17.158;2024-01-16T07:27:47;2.65;;;1.40;;
77586;SDS011;66744;49.716;17.158;2024-01-16T07:30:52;3.35;;;1.40;;
77586;SDS011;66744;49.716;17.158;2024-01-16T07:33:54;3.25;;;1.30;;
77586;SDS011;66744;49.716;17.158;2024-01-16T07:36:56;2.28;;;1.40;;
77586;SDS011;66744;49.716;17.158;2024-01-16T07:39:57;3.65;;;1.55;;
77586;SDS011;66744;49.716;17.158;2024-01-16T07:42:58;4.47;;;1.40;;
77586;SDS011;66744;49.716;17.158;2024-01-16T07:45:59;5.18;;;1.52;;
77586;SDS011;66744;49.716;17.158;2024-01-16T07:49:01;4.03;;;1.10;;
77586;SDS011;66744;49.716;17.158;2024-01-16T07:52:03;2.05;;;1.75;;
77586;SDS011;66744;49.716;17.158;2024-01-16T07:55:05;3.97;;;1.33;;
77586;SDS011;66744;49.716;17.158;2024-01-16T07:58:10;7.15;;;2.35;;
77586;SDS011;66744;49.716;17.158;2024-01-16T08:01:12;3.08;;;1.35;;
77586;SDS011;66744;49.716;17.158;2024-01-16T08:04:13;3.13;;;1.52;;
77586;SDS011;66744;49.716;17.158;2024-01-16T08:07:14;5.18;;;1.50;;
77586;SDS011;66744;49.716;17.158;2024-01-16T08:10:15;3.25;;;1.50;;
77586;SDS011;66744;49.716;17.158;2024-01-16T08:13:17;2.05;;;1.10;;
77586;SDS011;66744;49.716;17.158;2024-01-16T08:16:18;2.97;;;1.60;;
77586;SDS011;66744;49.716;17.158;2024-01-16T08:19:19;2.03;;;1.30;;
77586;SDS011;66744;49.716;17.158;2024-01-16T08:22:20;1.05;;;0.95;;
77586;SDS011;66744;49.716;17.158;2024-01-16T08:25:22;2.78;;;1.60;;
77586;SDS011;66744;49.716;17.158;2024-01-16T08:28:23;5.05;;;1.35;;
77586;SDS011;66744;49.716;17.158;2024-01-16T08:31:25;3.65;;;1.65;;
77586;SDS011;66744;49.716;17.158;2024-01-16T08:34:26;2.90;;;1.40;;
77586;SDS011;66744;49.716;17.158;2024-01-16T08:37:28;2.42;;;1.63;;
77586;SDS011;66744;49.716;17.158;2024-01-16T08:40:29;2.97;;;1.38;;
77586;SDS011;66744;49.716;17.158;2024-01-16T08:43:30;3.95;;;1.63;;
77586;SDS011;66744;49.716;17.158;2024-01-16T08:46:31;3.00;;;1.50;;
77586;SDS011;66744;49.716;17.158;2024-01-16T08:49:32;3.40;;;1.92;;
77586;SDS011;66744;49.716;17.158;2024-01-16T08:52:34;4.55;;;1.58;;
77586;SDS011;66744;49.716;17.158;2024-01-16T08:55:36;2.90;;;1.63;;
77586;SDS011;66744;49.716;17.158;2024-01-16T08:58:38;3.58;;;1.90;;
77586;SDS011;66744;49.716;17.158;2024-01-16T09:01:39;3.72;;;1.48;;
77586;SDS011;66744;49.716;17.158;2024-01-16T09:04:44;6.65;;;2.15;;
77586;SDS011;66744;49.716;17.158;2024-01-16T09:07:46;3.45;;;2.22;;
77586;SDS011;66744;49.716;17.158;2024-01-16T09:10:47;2.17;;;1.67;;
77586;SDS011;66744;49.716;17.158;2024-01-16T09:13:48;4.38;;;2.13;;
77586;SDS011;66744;49.716;17.158;2024-01-16T09:16:50;2.45;;;1.50;;
77586;SDS011;66744;49.716;17.158;2024-01-16T09:19:51;2.55;;;1.58;;
77586;SDS011;66744;49.716;17.158;2024-01-16T09:22:53;2.67;;;1.50;;
77586;SDS011;66744;49.716;17.158;2024-01-16T09:25:54;3.15;;;1.73;;
77586;SDS011;66744;49.716;17.158;2024-01-16T09:28:55;4.10;;;1.63;;
77586;SDS011;66744;49.716;17.158;2024-01-16T09:31:56;18.98;;;3.28;;
77586;SDS011;66744;49.716;17.158;2024-01-16T09:34:57;2.53;;;1.90;;
77586;SDS011;66744;49.716;17.158;2024-01-16T09:37:59;2.35;;;1.65;;
77586;SDS011;66744;49.716;17.158;2024-01-16T09:41:00;3.42;;;1.90;;
77586;SDS011;66744;49.716;17.158;2024-01-16T09:44:04;3.50;;;1.77;;
77586;SDS011;66744;49.716;17.158;2024-01-16T09:47:05;3.40;;;1.55;;
77586;SDS011;66744;49.716;17.158;2024-01-16T09:50:09;1.92;;;1.48;;
77586;SDS011;66744;49.716;17.158;2024-01-16T09:53:11;3.17;;;1.75;;
77586;SDS011;66744;49.716;17.158;2024-01-16T09:56:16;3.13;;;1.75;;
77586;SDS011;66744;49.716;17.158;2024-01-16T09:59:17;1.67;;;1.33;;
77586;SDS011;66744;49.716;17.158;2024-01-16T10:02:21;3.28;;;1.90;;
77586;SDS011;66744;49.716;17.158;2024-01-16T10:05:24;5.63;;;1.52;;
77586;SDS011;66744;49.716;17.158;2024-01-16T10:08:27;3.45;;;1.25;;
77586;SDS011;66744;49.716;17.158;2024-01-16T10:11:29;1.58;;;1.33;;
77586;SDS011;66744;49.716;17.158;2024-01-16T10:14:32;4.65;;;1.58;;
77586;SDS011;66744;49.716;17.158;2024-01-16T10:20:42;3.50;;;1.90;;
77586;SDS011;66744;49.716;17.158;2024-01-16T10:23:44;2.13;;;1.80;;
77586;SDS011;66744;49.716;17.158;2024-01-16T10:26:45;4.22;;;2.55;;
77586;SDS011;66744;49.716;17.158;2024-01-16T10:29:58;2.38;;;1.10;;
77586;SDS011;66744;49.716;17.158;2024-01-16T10:33:12;3.28;;;1.60;;
77586;SDS011;66744;49.716;17.158;2024-01-16T10:36:17;3.53;;;1.98;;
77586;SDS011;66744;49.716;17.158;2024-01-16T10:39:21;3.80;;;1.30;;
77586;SDS011;66744;49.716;17.158;2024-01-16T10:42:22;3.05;;;2.00;;
77586;SDS011;66744;49.716;17.158;2024-01-16T10:45:24;3.25;;;1.63;;
77586;SDS011;66744;49.716;17.158;2024-01-16T10:48:25;2.83;;;1.90;;
77586;SDS011;66744;49.716;17.158;2024-01-16T10:51:27;3.35;;;1.75;;
77586;SDS011;66744;49.716;17.158;2024-01-16T10:54:29;1.80;;;1.50;;
77586;SDS011;66744;49.716;17.158;2024-01-16T10:57:32;2.80;;;1.73;;
77586;SDS011;66744;49.716;17.158;2024-01-16T11:00:33;2.95;;;1.80;;
77586;SDS011;66744;49.716;17.158;2024-01-16T11:03:40;3.88;;;1.70;;
77586;SDS011;66744;49.716;17.158;2024-01-16T11:06:54;3.20;;;1.60;;
77586;SDS011;66744;49.716;17.158;2024-01-16T11:09:55;1.65;;;1.17;;
77586;SDS011;66744;49.716;17.158;2024-01-16T11:12:59;3.20;;;1.85;;
77586;SDS011;66744;49.716;17.158;2024-01-16T11:16:02;2.97;;;1.65;;
77586;SDS011;66744;49.716;17.158;2024-01-16T11:19:05;4.15;;;1.92;;
77586;SDS011;66744;49.716;17.158;2024-01-16T11:22:12;4.18;;;1.90;;
77586;SDS011;66744;49.716;17.158;2024-01-16T11:25:15;2.75;;;1.75;;
77586;SDS011;66744;49.716;17.158;2024-01-16T11:28:18;2.72;;;1.50;;
77586;SDS011;66744;49.716;17.158;2024-01-16T11:37:41;5.18;;;1.83;;
77586;SDS011;66744;49.716;17.158;2024-01-16T11:40:44;3.72;;;1.58;;
77586;SDS011;66744;49.716;17.158;2024-01-16T11:43:45;3.25;;;1.58;;
77586;SDS011;66744;49.716;17.158;2024-01-16T11:47:02;2.63;;;1.33;;
77586;SDS011;66744;49.716;17.158;2024-01-16T11:50:11;1.73;;;1.13;;
77586;SDS011;66744;49.716;17.158;2024-01-16T12:00:04;2.55;;;1.35;;
77586;SDS011;66744;49.716;17.158;2024-01-16T12:03:15;3.15;;;1.48;;
77586;SDS011;66744;49.716;17.158;2024-01-16T12:06:19;5.32;;;2.50;;
77586;SDS011;66744;49.716;17.158;2024-01-16T12:09:20;3.42;;;1.83;;
77586;SDS011;66744;49.716;17.158;2024-01-16T12:12:22;3.28;;;1.75;;
77586;SDS011;66744;49.716;17.158;2024-01-16T12:15:24;3.28;;;1.63;;
77586;SDS011;66744;49.716;17.158;2024-01-16T12:18:25;5.85;;;2.03;;
77586;SDS011;66744;49.716;17.158;2024-01-16T12:21:26;5.00;;;2.33;;
77586;SDS011;66744;49.716;17.158;2024-01-16T12:24:27;3.97;;;2.05;;
77586;SDS011;66744;49.716;17.158;2024-01-16T12:27:29;1.80;;;1.48;;
77586;SDS011;66744;49.716;17.158;2024-01-16T12:30:31;4.35;;;2.10;;
77586;SDS011;66744;49.716;17.158;2024-01-16T12:33:36;3.53;;;1.70;;
77586;SDS011;66744;49.716;17.158;2024-01-16T12:36:37;3.05;;;1.38;;
77586;SDS011;66744;49.716;17.158;2024-01-16T12:39:40;1.95;;;1.58;;
77586;SDS011;66744;49.716;17.158;2024-01-16T12:42:43;2.83;;;1.55;;
77586;SDS011;66744;49.716;17.158;2024-01-16T12:45:44;3.40;;;1.50;;
77586;SDS011;66744;49.716;17.158;2024-01-16T12:48:46;4.22;;;1.30;;
77586;SDS011;66744;49.716;17.158;2024-01-16T12:51:50;4.22;;;1.50;;
77586;SDS011;66744;49.716;17.158;2024-01-16T12:55:00;4.43;;;1.48;;
77586;SDS011;66744;49.716;17.158;2024-01-16T13:01:22;2.83;;;1.42;;
77586;SDS011;66744;49.716;17.158;2024-01-16T13:04:23;3.22;;;1.70;;
77586;SDS011;66744;49.716;17.158;2024-01-16T13:07:25;6.55;;;1.70;;
77586;SDS011;66744;49.716;17.158;2024-01-16T13:10:30;4.57;;;1.85;;
77586;SDS011;66744;49.716;17.158;2024-01-16T13:13:32;5.45;;;1.42;;
77586;SDS011;66744;49.716;17.158;2024-01-16T13:16:34;5.38;;;1.60;;
77586;SDS011;66744;49.716;17.158;2024-01-16T13:19:35;5.13;;;1.67;;
77586;SDS011;66744;49.716;17.158;2024-01-16T13:22:39;2.60;;;1.23;;
77586;SDS011;66744;49.716;17.158;2024-01-16T13:25:43;2.83;;;1.38;;
77586;SDS011;66744;49.716;17.158;2024-01-16T13:28:46;3.92;;;1.85;;
77586;SDS011;66744;49.716;17.158;2024-01-16T13:31:48;3.85;;;1.98;;
77586;SDS011;66744;49.716;17.158;2024-01-16T13:34:55;2.03;;;1.30;;
77586;SDS011;66744;49.716;17.158;2024-01-16T13:37:58;2.88;;;1.50;;
77586;SDS011;66744;49.716;17.158;2024-01-16T13:40:59;1.70;;;1.10;;
77586;SDS011;66744;49.716;17.158;2024-01-16T13:44:03;2.80;;;1.33;;
77586;SDS011;66744;49.716;17.158;2024-01-16T13:47:05;2.78;;;1.33;;
77586;SDS011;66744;49.716;17.158;2024-01-16T13:50:07;2.25;;;1.42;;
77586;SDS011;66744;49.716;17.158;2024-01-16T13:53:09;3.28;;;1.48;;
77586;SDS011;66744;49.716;17.158;2024-01-16T13:56:10;2.15;;;1.15;;
77586;SDS011;66744;49.716;17.158;2024-01-16T13:59:12;4.22;;;1.40;;
77586;SDS011;66744;49.716;17.158;2024-01-16T14:02:13;6.35;;;1.77;;
77586;SDS011;66744;49.716;17.158;2024-01-16T14:05:15;4.38;;;1.52;;
77586;SDS011;66744;49.716;17.158;2024-01-16T14:08:20;2.10;;;1.23;;
77586;SDS011;66744;49.716;17.158;2024-01-16T14:11:22;3.60;;;1.67;;
77586;SDS011;66744;49.716;17.158;2024-01-16T14:14:23;2.15;;;1.15;;
77586;SDS011;66744;49.716;17.158;2024-01-16T14:17:25;5.43;;;1.65;;
77586;SDS011;66744;49.716;17.158;2024-01-16T14:20:29;2.00;;;1.60;;
77586;SDS011;66744;49.716;17.158;2024-01-16T14:23:31;3.20;;;1.30;;
77586;SDS011;66744;49.716;17.158;2024-01-16T14:26:32;5.53;;;2.03;;
77586;SDS011;66744;49.716;17.158;2024-01-16T14:29:36;6.35;;;2.20;;
77586;SDS011;66744;49.716;17.158;2024-01-16T14:32:38;4.75;;;2.03;;
77586;SDS011;66744;49.716;17.158;2024-01-16T14:35:41;4.43;;;2.20;;
77586;SDS011;66744;49.716;17.158;2024-01-16T14:38:42;6.03;;;2.17;;
77586;SDS011;66744;49.716;17.158;2024-01-16T14:41:44;6.38;;;1.92;;
77586;SDS011;66744;49.716;17.158;2024-01-16T14:44:45;6.35;;;2.10;;
77586;SDS011;66744;49.716;17.158;2024-01-16T14:47:46;3.38;;;1.75;;
77586;SDS011;66744;49.716;17.158;2024-01-16T14:50:48;5.50;;;1.75;;
77586;SDS011;66744;49.716;17.158;2024-01-16T14:53:50;4.40;;;1.80;;
77586;SDS011;66744;49.716;17.158;2024-01-16T14:56:51;3.83;;;1.85;;
77586;SDS011;66744;49.716;17.158;2024-01-16T14:59:53;7.70;;;2.42;;
77586;SDS011;66744;49.716;17.158;2024-01-16T15:02:55;5.35;;;2.33;;
77586;SDS011;66744;49.716;17.158;2024-01-16T15:05:56;7.82;;;3.00;;
77586;SDS011;66744;49.716;17.158;2024-01-16T15:08:58;7.07;;;4.60;;
77586;SDS011;66744;49.716;17.158;2024-01-16T15:12:00;9.02;;;3.58;;
77586;SDS011;66744;49.716;17.158;2024-01-16T15:15:04;7.07;;;3.15;;
77586;SDS011;66744;49.716;17.158;2024-01-16T15:18:06;6.07;;;3.17;;
77586;SDS011;66744;49.716;17.158;2024-01-16T15:21:08;5.30;;;2.85;;
77586;SDS011;66744;49.716;17.158;2024-01-16T15:24:09;6.22;;;2.15;;
77586;SDS011;66744;49.716;17.158;2024-01-16T15:27:16;11.23;;;3.35;;
77586;SDS011;66744;49.716;17.158;2024-01-16T15:30:18;20.80;;;10.52;;
77586;SDS011;66744;49.716;17.158;2024-01-16T15:33:20;33.72;;;17.58;;
77586;SDS011;66744;49.716;17.158;2024-01-16T15:36:21;18.13;;;9.32;;
77586;SDS011;66744;49.716;17.158;2024-01-16T15:39:22;12.82;;;6.68;;
77586;SDS011;66744;49.716;17.158;2024-01-16T15:42:24;10.65;;;5.22;;
77586;SDS011;66744;49.716;17.158;2024-01-16T15:45:27;8.90;;;5.13;;
77586;SDS011;66744;49.716;17.158;2024-01-16T15:48:28;18.85;;;10.65;;
77586;SDS011;66744;49.716;17.158;2024-01-16T15:51:34;13.40;;;8.68;;
77586;SDS011;66744;49.716;17.158;2024-01-16T15:54:35;35.08;;;16.88;;
77586;SDS011;66744;49.716;17.158;2024-01-16T15:57:36;7.13;;;3.58;;
77586;SDS011;66744;49.716;17.158;2024-01-16T16:00:39;3.78;;;2.65;;
77586;SDS011;66744;49.716;17.158;2024-01-16T16:03:40;5.18;;;2.10;;
77586;SDS011;66744;49.716;17.158;2024-01-16T16:06:42;3.58;;;2.55;;
77586;SDS011;66744;49.716;17.158;2024-01-16T16:09:43;3.83;;;2.30;;
77586;SDS011;66744;49.716;17.158;2024-01-16T16:12:45;3.28;;;1.42;;
77586;SDS011;66744;49.716;17.158;2024-01-16T16:15:48;4.47;;;2.53;;
77586;SDS011;66744;49.716;17.158;2024-01-16T16:18:49;34.25;;;12.75;;
77586;SDS011;66744;49.716;17.158;2024-01-16T16:21:51;23.75;;;8.75;;
77586;SDS011;66744;49.716;17.158;2024-01-16T16:24:53;14.10;;;6.57;;
77586;SDS011;66744;49.716;17.158;2024-01-16T16:27:55;27.30;;;12.38;;
77586;SDS011;66744;49.716;17.158;2024-01-16T16:30:57;37.72;;;20.40;;
77586;SDS011;66744;49.716;17.158;2024-01-16T16:33:58;39.03;;;22.52;;
77586;SDS011;66744;49.716;17.158;2024-01-16T16:37:04;20.98;;;13.68;;
77586;SDS011;66744;49.716;17.158;2024-01-16T16:40:06;7.13;;;4.45;;
77586;SDS011;66744;49.716;17.158;2024-01-16T16:43:10;5.55;;;3.60;;
77586;SDS011;66744;49.716;17.158;2024-01-16T16:46:15;6.47;;;4.38;;
77586;SDS011;66744;49.716;17.158;2024-01-16T16:49:17;6.95;;;4.57;;
77586;SDS011;66744;49.716;17.158;2024-01-16T16:52:19;6.80;;;3.92;;
77586;SDS011;66744;49.716;17.158;2024-01-16T16:55:20;18.92;;;7.40;;
77586;SDS011;66744;49.716;17.158;2024-01-16T16:58:21;14.27;;;6.75;;
77586;SDS011;66744;49.716;17.158;2024-01-16T17:01:23;8.77;;;4.90;;
77586;SDS011;66744;49.716;17.158;2024-01-16T17:04:24;8.50;;;5.00;;
77586;SDS011;66744;49.716;17.158;2024-01-16T17:07:26;10.43;;;6.10;;
77586;SDS011;66744;49.716;17.158;2024-01-16T17:10:28;10.77;;;5.40;;
77586;SDS011;66744;49.716;17.158;2024-01-16T17:13:31;13.07;;;6.35;;
77586;SDS011;66744;49.716;17.158;2024-01-16T17:16:32;8.93;;;4.05;;
77586;SDS011;66744;49.716;17.158;2024-01-16T17:22:35;9.43;;;5.32;;
77586;SDS011;66744;49.716;17.158;2024-01-16T17:25:37;11.55;;;5.63;;
77586;SDS011;66744;49.716;17.158;2024-01-16T17:28:39;8.18;;;4.63;;
77586;SDS011;66744;49.716;17.158;2024-01-16T17:31:41;10.07;;;5.43;;
77586;SDS011;66744;49.716;17.158;2024-01-16T17:34:42;30.17;;;13.63;;
77586;SDS011;66744;49.716;17.158;2024-01-16T17:37:44;26.33;;;14.30;;
77586;SDS011;66744;49.716;17.158;2024-01-16T17:40:45;30.40;;;15.30;;
77586;SDS011;66744;49.716;17.158;2024-01-16T17:43:48;38.08;;;17.38;;
77586;SDS011;66744;49.716;17.158;2024-01-16T17:46:50;22.35;;;11.43;;
77586;SDS011;66744;49.716;17.158;2024-01-16T17:49:52;21.92;;;12.02;;
77586;SDS011;66744;49.716;17.158;2024-01-16T17:52:53;17.50;;;8.50;;
77586;SDS011;66744;49.716;17.158;2024-01-16T17:55:55;15.32;;;6.38;;
77586;SDS011;66744;49.716;17.158;2024-01-16T17:59:00;9.32;;;5.70;;
77586;SDS011;66744;49.716;17.158;2024-01-16T18:02:02;9.45;;;5.60;;
77586;SDS011;66744;49.716;17.158;2024-01-16T18:05:06;8.98;;;5.10;;
77586;SDS011;66744;49.716;17.158;2024-01-16T18:08:17;12.18;;;5.50;;
77586;SDS011;66744;49.716;17.158;2024-01-16T18:11:19;14.27;;;7.55;;
77586;SDS011;66744;49.716;17.158;2024-01-16T18:14:21;12.23;;;7.32;;
77586;SDS011;66744;49.716;17.158;2024-01-16T18:17:23;13.48;;;7.82;;
77586;SDS011;66744;49.716;17.158;2024-01-16T18:20:24;13.77;;;7.00;;
77586;SDS011;66744;49.716;17.158;2024-01-16T18:23:29;10.27;;;6.25;;
77586;SDS011;66744;49.716;17.158;2024-01-16T18:26:32;12.75;;;6.05;;
77586;SDS011;66744;49.716;17.158;2024-01-16T18:32:37;9.40;;;5.38;;
77586;SDS011;66744;49.716;17.158;2024-01-16T18:35:39;9.13;;;5.32;;
77586;SDS011;66744;49.716;17.158;2024-01-16T18:38:42;13.48;;;7.20;;